Terminal Aerodrome Forecast
Issued by NWS Pendleton, OR

Home | Current Version | Previous Version | Text Only | Print | Product List | Glossary On
Versions: 1 2 3 4 5 6 7 8 9 10 11 12 13
000
FTUS46 KPDT 310522
TAFPDT
TAF
KPDT 310522Z 3106/0106 26022G30KT P6SM SKC
     FM311000 23013G21KT P6SM SKC
     FM311300 23011KT P6SM SKC
     FM311800 28011G17KT P6SM SKC
     FM010100 30010KT P6SM SKC=

USA.gov is the U.S. government's official web portal to all federal, state and local government web resources and services.